createdAt,value
2017-04-28T00:00:59.952Z,1010.25
2017-04-28T00:02:11.191Z,1010.25
2017-04-28T00:03:22.420Z,1010.22
2017-04-28T00:04:33.551Z,1010.24
2017-04-28T00:05:44.786Z,1010.25
2017-04-28T00:06:56.221Z,1010.27
2017-04-28T00:08:07.249Z,1010.23
2017-04-28T00:09:18.286Z,1010.29
2017-04-28T00:10:29.316Z,1010.28
2017-04-28T00:11:40.541Z,1010.33
2017-04-28T00:12:51.564Z,1010.27
2017-04-28T00:14:02.599Z,1010.26
2017-04-28T00:15:13.838Z,1010.26
2017-04-28T00:16:24.867Z,1010.27
2017-04-28T00:17:35.885Z,1010.22
2017-04-28T00:18:46.911Z,1010.25
2017-04-28T00:19:57.985Z,1010.19
2017-04-28T00:21:09.082Z,1010.19
2017-04-28T00:22:20.106Z,1010.17
2017-04-28T00:23:31.123Z,1010.18
2017-04-28T00:24:42.163Z,1010.17
2017-04-28T00:25:53.394Z,1010.17
2017-04-28T00:27:04.421Z,1010.16
2017-04-28T00:28:15.649Z,1010.14
2017-04-28T00:29:26.679Z,1010.13
2017-04-28T00:30:37.971Z,1010.11
2017-04-28T00:31:49.000Z,1010.08
2017-04-28T00:33:00.035Z,1010.09
2017-04-28T00:34:11.065Z,1010.07
2017-04-28T00:35:22.109Z,1010.06
2017-04-28T00:36:33.139Z,1010.05
2017-04-28T00:37:44.168Z,1010.04
2017-04-28T00:38:55.221Z,1010.07
2017-04-28T00:40:06.251Z,1010.06
2017-04-28T00:41:17.331Z,1010.06
2017-04-28T00:42:28.360Z,1010.07
2017-04-28T00:43:39.395Z,1010.06
2017-04-28T00:44:50.625Z,1010.04
2017-04-28T00:46:01.849Z,1010.03
2017-04-28T00:47:12.912Z,1010.01
2017-04-28T00:48:23.952Z,1010.01
2017-04-28T00:49:34.996Z,1010.03
2017-04-28T00:50:46.260Z,1010.02
2017-04-28T00:51:57.530Z,1010.01
2017-04-28T00:53:08.551Z,1010
2017-04-28T00:54:19.579Z,1009.95
2017-04-28T00:55:30.641Z,1009.98
2017-04-28T00:56:41.674Z,1009.99
2017-04-28T00:57:52.701Z,1009.94
2017-04-28T00:59:03.732Z,1009.93
2017-04-28T01:00:14.773Z,1009.92
2017-04-28T01:01:25.804Z,1009.89
2017-04-28T01:02:36.834Z,1009.84
2017-04-28T01:03:47.872Z,1009.82
2017-04-28T01:04:59.103Z,1009.81
2017-04-28T01:06:10.128Z,1009.82
2017-04-28T01:07:21.167Z,1009.81
2017-04-28T01:08:32.253Z,1009.81
2017-04-28T01:09:43.676Z,1009.84
2017-04-28T01:10:54.711Z,1009.78
2017-04-28T01:12:05.747Z,1009.84
2017-04-28T01:13:16.968Z,1009.86
2017-04-28T01:14:28.009Z,1009.89
2017-04-28T01:15:39.034Z,1009.88
2017-04-28T01:16:50.847Z,1009.89
2017-04-28T01:18:01.925Z,1009.89
2017-04-28T01:19:12.966Z,1009.9
2017-04-28T01:20:23.996Z,1009.85
2017-04-28T01:21:35.025Z,1009.85
2017-04-28T01:22:46.047Z,1009.85
2017-04-28T01:23:57.079Z,1009.83
2017-04-28T01:25:08.313Z,1009.86
2017-04-28T01:26:19.339Z,1009.83
2017-04-28T01:27:30.572Z,1009.81
2017-04-28T01:28:41.862Z,1009.81
2017-04-28T01:29:52.891Z,1009.78
2017-04-28T01:31:03.920Z,1009.75
2017-04-28T01:32:14.950Z,1009.77
2017-04-28T01:33:26.185Z,1009.75
2017-04-28T01:34:37.266Z,1009.75
2017-04-28T01:35:48.300Z,1009.72
2017-04-28T01:36:59.332Z,1009.74
2017-04-28T01:38:10.355Z,1009.68
2017-04-28T01:39:21.433Z,1009.72
2017-04-28T01:40:32.470Z,1009.69
2017-04-28T01:41:43.698Z,1009.66
2017-04-28T01:42:54.725Z,1009.7
2017-04-28T01:44:05.762Z,1009.64
2017-04-28T01:45:16.799Z,1009.64
2017-04-28T01:46:28.025Z,1009.63
2017-04-28T01:47:39.084Z,1009.61
2017-04-28T01:48:50.133Z,1009.64
2017-04-28T01:50:01.158Z,1009.6
2017-04-28T01:51:12.432Z,1009.59
2017-04-28T01:52:23.446Z,1009.58
2017-04-28T01:53:34.489Z,1009.62
2017-04-28T01:54:45.527Z,1009.6
2017-04-28T01:55:56.774Z,1009.56
2017-04-28T01:57:07.809Z,1009.54
2017-04-28T01:58:18.838Z,1009.55
2017-04-28T01:59:29.869Z,1009.52
2017-04-28T02:00:41.154Z,1009.5
2017-04-28T02:01:52.188Z,1009.46
2017-04-28T02:03:03.219Z,1009.41
2017-04-28T02:04:14.262Z,1009.4
2017-04-28T02:05:25.692Z,1009.42
2017-04-28T02:06:36.722Z,1009.37
2017-04-28T02:07:47.742Z,1009.38
2017-04-28T02:08:58.775Z,1009.35
2017-04-28T02:10:09.822Z,1009.35
2017-04-28T02:11:20.902Z,1009.34
2017-04-28T02:12:31.925Z,1009.35
2017-04-28T02:13:42.985Z,1009.31
2017-04-28T02:14:54.214Z,1009.29
2017-04-28T02:16:05.236Z,1009.31
2017-04-28T02:17:16.252Z,1009.28
2017-04-28T02:18:27.277Z,1009.31
2017-04-28T02:19:38.507Z,1009.29
2017-04-28T02:20:49.548Z,1009.3
2017-04-28T02:22:00.817Z,1009.29
2017-04-28T02:23:11.845Z,1009.31
2017-04-28T02:24:22.875Z,1009.29
2017-04-28T02:25:33.906Z,1009.27
2017-04-28T02:26:44.940Z,1009.29
2017-04-28T02:27:55.953Z,1009.25
2017-04-28T02:29:06.983Z,1009.28
2017-04-28T02:30:18.020Z,1009.19
2017-04-28T02:31:29.045Z,1009.23
2017-04-28T02:32:40.084Z,1009.23
2017-04-28T02:33:51.161Z,1009.18
2017-04-28T02:35:02.180Z,1009.17
2017-04-28T02:36:13.202Z,1009.16
2017-04-28T02:37:24.221Z,1009.14
2017-04-28T02:38:35.253Z,1009.17
2017-04-28T02:39:46.291Z,1009.14
2017-04-28T02:40:57.313Z,1009.11
2017-04-28T02:42:08.340Z,1009.08
2017-04-28T02:43:19.427Z,1009.05
2017-04-28T02:44:30.671Z,1009.08
2017-04-28T02:45:41.701Z,1009.03
2017-04-28T02:46:52.934Z,1009.07
2017-04-28T02:48:03.963Z,1009.04
2017-04-28T02:49:14.989Z,1009.08
2017-04-28T02:50:26.012Z,1009.04
2017-04-28T02:51:37.043Z,1009.07
2017-04-28T02:52:48.085Z,1009.05
2017-04-28T02:53:59.165Z,1009.05
2017-04-28T02:55:10.190Z,1009.05
2017-04-28T02:56:21.416Z,1009.07
2017-04-28T02:57:32.436Z,1009.1
2017-04-28T02:58:43.482Z,1009.1
2017-04-28T02:59:54.516Z,1009.1
2017-04-28T03:01:05.544Z,1009.14
2017-04-28T03:02:16.571Z,1009.11
2017-04-28T03:03:27.602Z,1009.11
2017-04-28T03:04:38.881Z,1009.1
2017-04-28T03:05:49.919Z,1009.11
2017-04-28T03:07:00.946Z,1009.05
2017-04-28T03:08:11.997Z,1009.09
2017-04-28T03:09:23.022Z,1009.08
2017-04-28T03:10:34.048Z,1009.02
2017-04-28T03:11:45.089Z,1009.07
2017-04-28T03:12:56.526Z,1009.02
2017-04-28T03:14:07.591Z,1008.98
2017-04-28T03:15:18.632Z,1008.97
2017-04-28T03:16:29.861Z,1008.93
2017-04-28T03:17:40.890Z,1008.94
2017-04-28T03:18:51.921Z,1008.92
2017-04-28T03:20:02.962Z,1008.97
2017-04-28T03:21:13.994Z,1008.95
2017-04-28T03:22:25.297Z,1008.97
2017-04-28T03:23:36.522Z,1009
2017-04-28T03:24:47.760Z,1009.01
2017-04-28T03:25:58.990Z,1009.02
2017-04-28T03:27:10.419Z,1009.08
2017-04-28T03:28:21.653Z,1009.1
2017-04-28T03:29:33.091Z,1009.1
2017-04-28T03:30:44.117Z,1009.07
2017-04-28T03:31:55.190Z,1009.08
2017-04-28T03:33:06.227Z,1009.11
2017-04-28T03:34:17.265Z,1009.09
2017-04-28T03:35:28.286Z,1009.1
2017-04-28T03:36:39.321Z,1009.11
2017-04-28T03:37:50.344Z,1009.15
2017-04-28T03:39:01.376Z,1009.14
2017-04-28T03:40:12.611Z,1009.07
2017-04-28T03:41:23.649Z,1009.09
2017-04-28T03:42:34.745Z,1009.09
2017-04-28T03:43:45.774Z,1009.08
2017-04-28T03:44:56.814Z,1009.09
2017-04-28T03:46:07.846Z,1009.11
2017-04-28T03:47:18.876Z,1009.12
2017-04-28T03:48:29.962Z,1009.1
2017-04-28T03:49:41.002Z,1009.16
2017-04-28T03:50:52.018Z,1009.12
2017-04-28T03:52:03.046Z,1009.17
2017-04-28T03:53:14.061Z,1009.14
2017-04-28T03:54:25.093Z,1009.16
2017-04-28T03:55:36.323Z,1009.14
2017-04-28T03:56:47.393Z,1009.17
2017-04-28T03:57:58.426Z,1009.17
2017-04-28T03:59:09.645Z,1009.15
2017-04-28T04:00:20.717Z,1009.16
2017-04-28T04:01:31.752Z,1009.16
2017-04-28T04:02:42.782Z,1009.12
2017-04-28T04:03:54.015Z,1009.17
2017-04-28T04:05:05.043Z,1009.17
2017-04-28T04:06:16.066Z,1009.18
2017-04-28T04:07:27.291Z,1009.18
2017-04-28T04:08:38.365Z,1009.2
2017-04-28T04:09:49.658Z,1009.15
2017-04-28T04:11:00.885Z,1009.14
2017-04-28T04:12:12.112Z,1009.12
2017-04-28T04:13:23.152Z,1009.12
2017-04-28T04:14:34.195Z,1009.15
2017-04-28T04:15:45.222Z,1009.09
2017-04-28T04:16:56.457Z,1009.15
2017-04-28T04:18:07.682Z,1009.1
2017-04-28T04:19:18.706Z,1009.08
2017-04-28T04:20:29.782Z,1009.08
2017-04-28T04:21:40.816Z,1009.06
2017-04-28T04:22:51.842Z,1009.05
2017-04-28T04:24:02.867Z,1009.08
2017-04-28T04:25:14.138Z,1009.01
2017-04-28T04:26:25.358Z,1009.03
2017-04-28T04:27:36.384Z,1009.04
2017-04-28T04:28:47.427Z,1009.08
2017-04-28T04:29:58.452Z,1009.06
2017-04-28T04:31:09.552Z,1009.12
2017-04-28T04:32:20.583Z,1009.09
2017-04-28T04:33:31.628Z,1009.1
2017-04-28T04:34:42.649Z,1009.06
2017-04-28T04:35:54.079Z,1009.12
2017-04-28T04:37:05.107Z,1009.11
2017-04-28T04:38:16.140Z,1009.12
2017-04-28T04:39:27.168Z,1009.13
2017-04-28T04:40:38.200Z,1009.12
2017-04-28T04:41:49.251Z,1009.16
2017-04-28T04:43:00.332Z,1009.12
2017-04-28T04:44:11.362Z,1009.17
2017-04-28T04:45:22.789Z,1009.17
2017-04-28T04:46:33.829Z,1009.21
2017-04-28T04:47:44.848Z,1009.23
2017-04-28T04:48:56.076Z,1009.26
2017-04-28T04:50:07.114Z,1009.24
2017-04-28T04:51:18.138Z,1009.24
2017-04-28T04:52:29.220Z,1009.25
2017-04-28T04:53:40.465Z,1009.21
2017-04-28T04:54:51.713Z,1009.23
2017-04-28T04:56:02.743Z,1009.27
2017-04-28T04:57:13.778Z,1009.19
2017-04-28T04:58:25.009Z,1009.19
2017-04-28T04:59:36.037Z,1009.22
2017-04-28T05:00:47.075Z,1009.19
2017-04-28T05:01:58.305Z,1009.18
2017-04-28T05:03:09.379Z,1009.17
2017-04-28T05:04:20.436Z,1009.17
2017-04-28T05:05:31.467Z,1009.22
2017-04-28T05:06:42.532Z,1009.21
2017-04-28T05:07:53.553Z,1009.18
2017-04-28T05:09:04.590Z,1009.14
2017-04-28T05:10:15.624Z,1009.17
2017-04-28T05:11:26.851Z,1009.13
2017-04-28T05:12:38.079Z,1009.08
2017-04-28T05:13:49.168Z,1009.12
2017-04-28T05:15:00.207Z,1009.07
2017-04-28T05:16:11.237Z,1009.12
2017-04-28T05:17:22.466Z,1009.08
2017-04-28T05:18:33.504Z,1009.16
2017-04-28T05:19:44.537Z,1009.16
2017-04-28T05:20:55.568Z,1009.12
2017-04-28T05:22:06.593Z,1009.14
2017-04-28T05:23:17.652Z,1009.12
2017-04-28T05:24:28.681Z,1009.1
2017-04-28T05:25:39.759Z,1009.13
2017-04-28T05:26:50.783Z,1009.17
2017-04-28T05:28:02.012Z,1009.15
2017-04-28T05:29:13.039Z,1009.17
2017-04-28T05:30:24.074Z,1009.16
2017-04-28T05:31:35.095Z,1009.19
2017-04-28T05:32:46.129Z,1009.2
2017-04-28T05:33:57.368Z,1009.18
2017-04-28T05:35:08.451Z,1009.18
2017-04-28T05:36:19.493Z,1009.17
2017-04-28T05:37:30.536Z,1009.16
2017-04-28T05:38:41.570Z,1009.19
2017-04-28T05:39:52.591Z,1009.16
2017-04-28T05:41:03.617Z,1009.19
2017-04-28T05:42:14.648Z,1009.16
2017-04-28T05:43:25.676Z,1009.18
2017-04-28T05:44:36.714Z,1009.15
2017-04-28T05:45:47.793Z,1009.18
2017-04-28T05:46:58.813Z,1009.15
2017-04-28T05:48:09.832Z,1009.15
2017-04-28T05:49:21.072Z,1009.18
2017-04-28T05:50:32.313Z,1009.16
2017-04-28T05:51:43.346Z,1009.1
2017-04-28T05:52:54.384Z,1009.14
2017-04-28T05:54:05.432Z,1009.12
2017-04-28T05:55:16.471Z,1009.1
2017-04-28T05:56:27.550Z,1009.1
2017-04-28T05:57:38.571Z,1009.09
2017-04-28T05:58:49.601Z,1009.13
2017-04-28T06:00:00.646Z,1009.1
2017-04-28T06:01:11.683Z,1009.1
2017-04-28T06:02:22.743Z,1009.11
2017-04-28T06:03:33.984Z,1009.09
2017-04-28T06:04:45.222Z,1009.12
2017-04-28T06:05:56.262Z,1009.14
2017-04-28T06:07:07.299Z,1009.13
2017-04-28T06:08:18.387Z,1009.1
2017-04-28T06:09:29.626Z,1009.11
2017-04-28T06:10:40.649Z,1009.14
2017-04-28T06:11:51.683Z,1009.17
2017-04-28T06:13:03.129Z,1009.11
2017-04-28T06:14:14.160Z,1009.12
2017-04-28T06:15:25.192Z,1009.1
2017-04-28T06:16:36.230Z,1009.08
2017-04-28T06:17:47.311Z,1009.14
2017-04-28T06:18:58.344Z,1009.1
2017-04-28T06:20:09.371Z,1009.1
2017-04-28T06:21:20.801Z,1009.12
2017-04-28T06:22:31.838Z,1009.11
2017-04-28T06:23:42.875Z,1009.09
2017-04-28T06:24:54.107Z,1009.14
2017-04-28T06:26:05.143Z,1009.11
2017-04-28T06:27:16.376Z,1009.11
2017-04-28T06:28:27.466Z,1009.12
2017-04-28T06:29:38.506Z,1009.13
2017-04-28T06:30:49.531Z,1009.13
2017-04-28T06:32:00.768Z,1009.13
2017-04-28T06:33:11.796Z,1009.11
2017-04-28T06:34:22.833Z,1009.09
2017-04-28T06:35:33.860Z,1009.11
2017-04-28T06:36:44.883Z,1009.09
2017-04-28T06:37:55.896Z,1009.11
2017-04-28T06:39:06.971Z,1009.08
2017-04-28T06:40:18.215Z,1009.07
2017-04-28T06:41:29.248Z,1009.07
2017-04-28T06:42:40.284Z,1009.13
2017-04-28T06:43:51.313Z,1009.05
2017-04-28T06:45:02.352Z,1009.08
2017-04-28T06:46:13.375Z,1009.1
2017-04-28T06:47:24.607Z,1009.1
2017-04-28T06:48:35.651Z,1009.15
2017-04-28T06:49:46.684Z,1009.11
2017-04-28T06:50:57.771Z,1009.12
2017-04-28T06:52:08.803Z,1009.14
2017-04-28T06:53:19.829Z,1009.13
2017-04-28T06:54:30.872Z,1009.17
2017-04-28T06:55:42.105Z,1009.18
2017-04-28T06:56:53.126Z,1009.14
2017-04-28T06:58:04.349Z,1009.16
2017-04-28T06:59:15.380Z,1009.2
2017-04-28T07:00:26.465Z,1009.16
2017-04-28T07:01:37.489Z,1009.21
2017-04-28T07:02:48.524Z,1009.17
2017-04-28T07:03:59.770Z,1009.19
2017-04-28T07:05:10.804Z,1009.15
2017-04-28T07:06:21.832Z,1009.17
2017-04-28T07:07:33.266Z,1009.16
2017-04-28T07:08:44.325Z,1009.17
2017-04-28T07:09:55.353Z,1009.16
2017-04-28T07:11:06.429Z,1009.15
2017-04-28T07:12:17.457Z,1009.16
2017-04-28T07:13:28.480Z,1009.22
2017-04-28T07:14:39.717Z,1009.19
2017-04-28T07:15:50.749Z,1009.18
2017-04-28T07:17:01.777Z,1009.23
2017-04-28T07:18:12.797Z,1009.21
2017-04-28T07:19:23.812Z,1009.22
2017-04-28T07:20:34.845Z,1009.2
2017-04-28T07:21:46.131Z,1009.23
2017-04-28T07:22:57.160Z,1009.2
2017-04-28T07:24:08.195Z,1009.22
2017-04-28T07:25:19.231Z,1009.22
2017-04-28T07:26:30.258Z,1009.23
2017-04-28T07:27:41.501Z,1009.23
2017-04-28T07:28:52.528Z,1009.21
2017-04-28T07:30:03.563Z,1009.23
2017-04-28T07:31:14.593Z,1009.24
2017-04-28T07:32:25.616Z,1009.26
2017-04-28T07:33:36.698Z,1009.3
2017-04-28T07:34:47.724Z,1009.28
2017-04-28T07:35:58.748Z,1009.27
2017-04-28T07:37:09.778Z,1009.25
2017-04-28T07:38:20.799Z,1009.23
2017-04-28T07:39:31.837Z,1009.21
2017-04-28T07:40:42.869Z,1009.22
2017-04-28T07:41:53.910Z,1009.21
2017-04-28T07:43:04.990Z,1009.22
2017-04-28T07:44:16.022Z,1009.21
2017-04-28T07:45:27.051Z,1009.22
2017-04-28T07:46:38.289Z,1009.23
2017-04-28T07:47:49.298Z,1009.26
2017-04-28T07:49:00.534Z,1009.29
2017-04-28T07:50:11.565Z,1009.29
2017-04-28T07:51:22.598Z,1009.29
2017-04-28T07:52:33.626Z,1009.33
2017-04-28T07:53:44.896Z,1009.29
2017-04-28T07:54:55.918Z,1009.26
2017-04-28T07:56:07.363Z,1009.27
2017-04-28T07:57:18.400Z,1009.29
2017-04-28T07:58:29.429Z,1009.27
2017-04-28T07:59:40.488Z,1009.29
2017-04-28T08:00:51.516Z,1009.24
2017-04-28T08:02:02.554Z,1009.24
2017-04-28T08:03:13.583Z,1009.26
2017-04-28T08:04:24.658Z,1009.28
2017-04-28T08:05:35.685Z,1009.27
2017-04-28T08:06:46.723Z,1009.31
2017-04-28T08:07:57.756Z,1009.29
2017-04-28T08:09:08.781Z,1009.34
2017-04-28T08:10:19.812Z,1009.31
2017-04-28T08:11:31.252Z,1009.34
2017-04-28T08:12:42.480Z,1009.34
2017-04-28T08:13:53.513Z,1009.35
2017-04-28T08:15:04.559Z,1009.31
2017-04-28T08:16:15.640Z,1009.41
2017-04-28T08:17:26.864Z,1009.44
2017-04-28T08:18:38.103Z,1009.41
2017-04-28T08:19:49.339Z,1009.42
2017-04-28T08:21:00.360Z,1009.44
2017-04-28T08:22:11.387Z,1009.4
2017-04-28T08:23:22.425Z,1009.46
2017-04-28T08:24:33.447Z,1009.41
2017-04-28T08:25:44.534Z,1009.37
2017-04-28T08:26:55.570Z,1009.41
2017-04-28T08:28:06.608Z,1009.45
2017-04-28T08:29:17.632Z,1009.48
2017-04-28T08:30:28.859Z,1009.48
2017-04-28T08:31:39.886Z,1009.49
2017-04-28T08:32:50.922Z,1009.5
2017-04-28T08:34:01.956Z,1009.42
2017-04-28T08:35:13.196Z,1009.4
2017-04-28T08:36:24.487Z,1009.39
2017-04-28T08:37:35.557Z,1009.36
2017-04-28T08:38:46.596Z,1009.42
2017-04-28T08:39:57.633Z,1009.38
2017-04-28T08:41:08.876Z,1009.4
2017-04-28T08:42:19.969Z,1009.39
2017-04-28T08:43:31.005Z,1009.37
2017-04-28T08:44:42.030Z,1009.33
2017-04-28T08:45:53.064Z,1009.3
2017-04-28T08:47:04.082Z,1009.27
2017-04-28T08:48:15.112Z,1009.25
2017-04-28T08:49:26.151Z,1009.26
2017-04-28T08:50:37.183Z,1009.26
2017-04-28T08:51:48.217Z,1009.26
2017-04-28T08:52:59.451Z,1009.3
2017-04-28T08:54:10.483Z,1009.3
2017-04-28T08:55:21.517Z,1009.34
2017-04-28T08:56:32.547Z,1009.33
2017-04-28T08:57:43.586Z,1009.39
2017-04-28T08:58:54.618Z,1009.41
2017-04-28T09:00:05.695Z,1009.38
2017-04-28T09:01:16.724Z,1009.41
2017-04-28T09:02:27.766Z,1009.4
2017-04-28T09:03:39.000Z,1009.41
2017-04-28T09:04:50.221Z,1009.4
2017-04-28T09:06:01.250Z,1009.33
2017-04-28T09:07:12.274Z,1009.3
2017-04-28T09:08:23.313Z,1009.32
2017-04-28T09:09:34.596Z,1009.32
2017-04-28T09:10:45.632Z,1009.32
2017-04-28T09:11:56.666Z,1009.28
2017-04-28T09:13:07.703Z,1009.33
2017-04-28T09:14:18.732Z,1009.31
2017-04-28T09:15:29.763Z,1009.32
2017-04-28T09:16:40.792Z,1009.33
2017-04-28T09:17:52.031Z,1009.32
2017-04-28T09:19:03.063Z,1009.34
2017-04-28T09:20:14.547Z,1009.35
2017-04-28T09:21:25.576Z,1009.32
2017-04-28T09:22:36.606Z,1009.33
2017-04-28T09:23:47.650Z,1009.38
2017-04-28T09:24:58.677Z,1009.38
2017-04-28T09:26:09.767Z,1009.4
2017-04-28T09:27:20.798Z,1009.39
2017-04-28T09:28:31.834Z,1009.38
2017-04-28T09:29:42.868Z,1009.37
2017-04-28T09:30:54.292Z,1009.38
2017-04-28T09:32:05.330Z,1009.41
2017-04-28T09:33:16.359Z,1009.43
2017-04-28T09:34:27.406Z,1009.58
2017-04-28T09:35:38.428Z,1009.73
2017-04-28T09:36:49.472Z,1009.82
2017-04-28T09:38:00.554Z,1009.59
2017-04-28T09:39:11.578Z,1009.52
2017-04-28T09:40:22.813Z,1009.46
2017-04-28T09:41:33.853Z,1009.38
2017-04-28T09:42:44.890Z,1009.37
2017-04-28T09:43:55.931Z,1009.36
2017-04-28T09:45:06.968Z,1009.37
2017-04-28T09:46:18.008Z,1009.37
2017-04-28T09:47:29.094Z,1009.36
2017-04-28T09:48:40.131Z,1009.34
2017-04-28T09:49:51.166Z,1009.31
2017-04-28T09:51:02.196Z,1009.32
2017-04-28T09:52:13.430Z,1009.32
2017-04-28T09:53:24.667Z,1009.35
2017-04-28T09:54:35.700Z,1009.32
2017-04-28T09:55:46.735Z,1009.33
2017-04-28T09:56:57.765Z,1009.33
2017-04-28T09:58:08.842Z,1009.33
2017-04-28T09:59:19.893Z,1009.31
2017-04-28T10:00:30.921Z,1009.29
2017-04-28T10:01:41.969Z,1009.27
2017-04-28T10:02:53.195Z,1009.27
2017-04-28T10:04:04.222Z,1009.23
2017-04-28T10:05:15.264Z,1009.23
2017-04-28T10:06:26.300Z,1009.22
2017-04-28T10:07:37.522Z,1009.21
2017-04-28T10:08:48.592Z,1009.21
2017-04-28T10:09:59.626Z,1009.2
2017-04-28T10:11:10.852Z,1009.19
2017-04-28T10:12:21.875Z,1009.21
2017-04-28T10:13:33.113Z,1009.16
2017-04-28T10:14:44.150Z,1009.19
2017-04-28T10:15:55.191Z,1009.21
2017-04-28T10:17:06.219Z,1009.25
2017-04-28T10:18:17.254Z,1009.22
2017-04-28T10:19:28.286Z,1009.26
2017-04-28T10:20:39.380Z,1009.24
2017-04-28T10:21:50.403Z,1009.25
2017-04-28T10:23:01.629Z,1009.25
2017-04-28T10:24:12.670Z,1009.23
2017-04-28T10:25:23.703Z,1009.23
2017-04-28T10:26:34.737Z,1009.21
2017-04-28T10:27:45.966Z,1009.22
2017-04-28T10:28:56.993Z,1009.26
2017-04-28T10:30:08.073Z,1009.25
2017-04-28T10:31:19.102Z,1009.25
2017-04-28T10:32:30.136Z,1009.27
2017-04-28T10:33:41.170Z,1009.23
2017-04-28T10:34:52.207Z,1009.23
2017-04-28T10:36:03.231Z,1009.26
2017-04-28T10:37:14.270Z,1009.24
2017-04-28T10:38:25.301Z,1009.2
2017-04-28T10:39:36.339Z,1009.22
2017-04-28T10:40:47.630Z,1009.23
2017-04-28T10:41:58.666Z,1009.24
2017-04-28T10:43:09.905Z,1009.25
2017-04-28T10:44:20.944Z,1009.23
2017-04-28T10:45:32.171Z,1009.21
2017-04-28T10:46:43.440Z,1009.26
2017-04-28T10:47:54.493Z,1009.24
2017-04-28T10:49:05.721Z,1009.24
2017-04-28T10:50:16.986Z,1009.2
2017-04-28T10:51:28.022Z,1009.23
2017-04-28T10:52:39.090Z,1009.2
2017-04-28T10:53:50.329Z,1009.22
2017-04-28T10:55:01.557Z,1009.2
2017-04-28T10:56:12.598Z,1009.17
2017-04-28T10:57:23.840Z,1009.17
2017-04-28T10:58:34.875Z,1009.17
2017-04-28T10:59:46.119Z,1009.13
2017-04-28T11:00:57.155Z,1009.12
2017-04-28T11:02:08.192Z,1009.15
2017-04-28T11:03:19.729Z,1009.14
2017-04-28T11:04:30.762Z,1009.16
2017-04-28T11:05:41.790Z,1009.12
2017-04-28T11:06:52.844Z,1009.14
2017-04-28T11:08:04.075Z,1009.14
2017-04-28T11:09:15.111Z,1009.17
2017-04-28T11:10:26.151Z,1009.24
2017-04-28T11:11:37.178Z,1009.21
2017-04-28T11:12:48.263Z,1009.31
2017-04-28T11:13:59.495Z,1009.34
2017-04-28T11:15:10.529Z,1009.34
2017-04-28T11:16:21.557Z,1009.31
2017-04-28T11:17:32.583Z,1009.24
2017-04-28T11:18:43.612Z,1009.22
2017-04-28T11:19:54.653Z,1009.16
2017-04-28T11:21:05.895Z,1009.17
2017-04-28T11:22:16.926Z,1009.18
2017-04-28T11:23:28.016Z,1009.15
2017-04-28T11:24:39.254Z,1009.12
2017-04-28T11:25:50.293Z,1009.12
2017-04-28T11:27:01.565Z,1009.09
2017-04-28T11:28:12.807Z,1009.09
2017-04-28T11:29:23.848Z,1009.09
2017-04-28T11:30:34.891Z,1009.08
2017-04-28T11:31:45.921Z,1009.06
2017-04-28T11:32:56.961Z,1009.04
2017-04-28T11:34:07.999Z,1009.01
2017-04-28T11:35:19.038Z,1009.08
2017-04-28T11:36:30.066Z,1009.11
2017-04-28T11:37:41.104Z,1009.13
2017-04-28T11:38:52.131Z,1009.13
2017-04-28T11:40:03.227Z,1009.18
2017-04-28T11:41:14.459Z,1009.16
2017-04-28T11:42:25.504Z,1009.15
2017-04-28T11:43:36.532Z,1009.09
2017-04-28T11:44:47.581Z,1009.04
2017-04-28T11:45:58.880Z,1009.12
2017-04-28T11:47:10.121Z,1009.08
2017-04-28T11:48:21.178Z,1009.08
2017-04-28T11:49:32.412Z,1009.09
2017-04-28T11:50:43.452Z,1009.01
2017-04-28T11:51:54.490Z,1009.02
2017-04-28T11:53:05.535Z,1009
2017-04-28T11:54:16.583Z,1009.07
2017-04-28T11:55:27.669Z,1009.11
2017-04-28T11:56:38.899Z,1009.09
2017-04-28T11:57:49.951Z,1009.06
2017-04-28T11:59:00.992Z,1009.06
2017-04-28T12:00:12.039Z,1008.99
2017-04-28T12:01:23.108Z,1008.93
2017-04-28T12:02:34.159Z,1008.9
2017-04-28T12:03:45.189Z,1008.85
2017-04-28T12:04:56.238Z,1008.98
2017-04-28T12:06:07.326Z,1008.89
2017-04-28T12:07:18.372Z,1008.86
2017-04-28T12:08:29.419Z,1008.85
2017-04-28T12:09:40.450Z,1008.89
2017-04-28T12:10:51.690Z,1008.91
2017-04-28T12:12:02.778Z,1008.86
2017-04-28T12:13:13.818Z,1008.79
2017-04-28T12:14:24.869Z,1008.8
2017-04-28T12:15:35.911Z,1008.77
2017-04-28T12:16:46.948Z,1008.79
2017-04-28T12:17:57.988Z,1008.83
2017-04-28T12:19:09.031Z,1008.86
2017-04-28T12:20:20.089Z,1008.86
2017-04-28T12:21:31.776Z,1008.76
2017-04-28T12:22:42.802Z,1008.78
2017-04-28T12:23:53.886Z,1008.7
2017-04-28T12:25:04.921Z,1008.7
2017-04-28T12:26:15.963Z,1008.78
2017-04-28T12:27:27.217Z,1008.73
2017-04-28T12:28:38.254Z,1008.7
2017-04-28T12:29:49.299Z,1008.69
2017-04-28T12:31:00.550Z,1008.65
2017-04-28T12:32:11.585Z,1008.63
2017-04-28T12:33:22.889Z,1008.69
2017-04-28T12:34:33.964Z,1008.69
2017-04-28T12:35:45.219Z,1008.64
2017-04-28T12:36:56.266Z,1008.62
2017-04-28T12:38:07.509Z,1008.67
2017-04-28T12:39:18.558Z,1008.76
2017-04-28T12:40:29.606Z,1008.77
2017-04-28T12:41:40.638Z,1008.83
2017-04-28T12:42:51.873Z,1008.88
2017-04-28T12:44:02.977Z,1008.88
2017-04-28T12:45:14.016Z,1008.86
2017-04-28T12:46:25.061Z,1008.84
2017-04-28T12:47:36.094Z,1008.82
2017-04-28T12:48:47.134Z,1008.72
2017-04-28T12:49:58.172Z,1008.74
2017-04-28T12:51:09.212Z,1008.79
2017-04-28T12:52:20.262Z,1008.78
2017-04-28T12:53:31.304Z,1008.78
2017-04-28T12:54:42.393Z,1008.78
2017-04-28T12:55:53.630Z,1008.77
2017-04-28T12:57:04.662Z,1008.8
2017-04-28T12:58:15.694Z,1008.85
2017-04-28T12:59:26.757Z,1008.79
2017-04-28T13:00:37.799Z,1008.86
2017-04-28T13:01:48.838Z,1008.83
2017-04-28T13:02:59.878Z,1008.87
2017-04-28T13:04:10.925Z,1008.89
2017-04-28T13:05:21.967Z,1008.87
2017-04-28T13:06:33.097Z,1008.88
2017-04-28T13:07:44.142Z,1008.82
2017-04-28T13:08:55.169Z,1008.81
2017-04-28T13:10:06.193Z,1008.83
2017-04-28T13:11:17.226Z,1008.81
2017-04-28T13:12:28.470Z,1008.77
2017-04-28T13:13:39.516Z,1008.82
2017-04-28T13:14:50.538Z,1008.78
2017-04-28T13:16:01.640Z,1008.76
2017-04-28T13:17:12.713Z,1008.73
2017-04-28T13:18:23.755Z,1008.69
2017-04-28T13:19:34.779Z,1008.73
2017-04-28T13:20:45.822Z,1008.68
2017-04-28T13:21:57.060Z,1008.69
2017-04-28T13:23:08.095Z,1008.73
2017-04-28T13:24:19.145Z,1008.79
2017-04-28T13:25:30.192Z,1008.8
2017-04-28T13:26:41.284Z,1008.74
2017-04-28T13:27:52.323Z,1008.68
2017-04-28T13:29:03.371Z,1008.69
2017-04-28T13:30:14.413Z,1008.71
2017-04-28T13:31:25.452Z,1008.73
2017-04-28T13:32:36.694Z,1008.78
2017-04-28T13:33:47.737Z,1008.8
2017-04-28T13:34:58.817Z,1008.8
2017-04-28T13:36:10.056Z,1008.79
2017-04-28T13:37:21.142Z,1008.78
2017-04-28T13:38:32.183Z,1008.73
2017-04-28T13:39:43.220Z,1008.8
2017-04-28T13:40:54.255Z,1008.73
2017-04-28T13:42:05.286Z,1008.68
2017-04-28T13:43:16.319Z,1008.68
2017-04-28T13:44:27.563Z,1008.71
2017-04-28T13:45:38.602Z,1008.71
2017-04-28T13:46:49.678Z,1008.66
2017-04-28T13:48:00.710Z,1008.65
2017-04-28T13:49:11.791Z,1008.66
2017-04-28T13:50:23.037Z,1008.58
2017-04-28T13:51:34.266Z,1008.63
2017-04-28T13:52:45.511Z,1008.62
2017-04-28T13:53:56.958Z,1008.57
2017-04-28T13:55:07.991Z,1008.63
2017-04-28T13:56:19.232Z,1008.62
2017-04-28T13:57:30.683Z,1008.58
2017-04-28T13:58:41.773Z,1008.65
2017-04-28T13:59:52.802Z,1008.67
2017-04-28T14:01:04.254Z,1008.64
2017-04-28T14:02:15.294Z,1008.62
2017-04-28T14:03:26.362Z,1008.68
2017-04-28T14:04:37.405Z,1008.65
2017-04-28T14:05:48.477Z,1008.64
2017-04-28T14:06:59.548Z,1008.67
2017-04-28T14:08:10.584Z,1008.68
2017-04-28T14:09:21.669Z,1008.79
2017-04-28T14:10:32.712Z,1008.78
2017-04-28T14:11:43.943Z,1008.79
2017-04-28T14:12:55.187Z,1008.84
2017-04-28T14:14:06.430Z,1008.84
2017-04-28T14:15:17.478Z,1008.81
2017-04-28T14:16:28.523Z,1008.83
2017-04-28T14:17:39.545Z,1008.81
2017-04-28T14:18:50.574Z,1008.83
2017-04-28T14:20:01.603Z,1008.82
2017-04-28T14:21:12.650Z,1008.83
2017-04-28T14:22:23.691Z,1008.88